Time;durP1;ratioP1;P1;durP2;ratioP2;P2;SDS_P1;SDS_P2;PMS_P1;PMS_P2;Temp;Humidity;BMP_temperature;BMP_pressure;BME280_temperature;BME280_humidity;BME280_pressure;Samples;Min_cycle;Max_cycle;Signal;HPM_P1;HPM_P2
2021/08/07 00:06:57;;;;;;;6;2.7;;;;;;;12.43;100;97757.48;;;;
2021/08/07 00:16:56;;;;;;;5;3.1;;;;;;;12.45;100;97763.35;;;;
2021/08/07 00:26:56;;;;;;;7.9;3.6;;;;;;;12.32;100;97767.95;;;;
2021/08/07 00:36:55;;;;;;;5;3.2;;;;;;;12.14;100;97773.94;;;;
2021/08/07 00:46:54;;;;;;;7.2;4.2;;;;;;;11.97;100;97786.53;;;;
2021/08/07 00:56:53;;;;;;;6.3;4.3;;;;;;;11.78;100;97782.77;;;;
2021/08/07 01:06:52;;;;;;;6;3.9;;;;;;;11.62;100;97796.09;;;;
2021/08/07 01:16:52;;;;;;;4.7;1.9;;;;;;;11.52;100;97794.58;;;;
2021/08/07 01:26:51;;;;;;;5.6;3.1;;;;;;;11.51;100;97792.23;;;;
2021/08/07 01:36:50;;;;;;;6.4;3.2;;;;;;;11.55;100;97793.94;;;;
2021/08/07 01:46:51;;;;;;;5;3.1;;;;;;;11.63;100;97797.66;;;;
2021/08/07 01:56:48;;;;;;;6;3.4;;;;;;;11.62;100;97809.59;;;;
2021/08/07 02:06:47;;;;;;;4;2.7;;;;;;;11.69;100;97812.53;;;;
2021/08/07 02:16:47;;;;;;;6.2;2.6;;;;;;;11.74;100;97804.24;;;;
2021/08/07 02:26:46;;;;;;;6.9;3;;;;;;;11.83;100;97813.05;;;;
2021/08/07 02:36:45;;;;;;;7.3;3.4;;;;;;;11.82;100;97811.47;;;;
2021/08/07 02:46:44;;;;;;;4.3;2.8;;;;;;;11.92;100;97810.25;;;;
2021/08/07 02:56:44;;;;;;;8.8;3.2;;;;;;;11.95;100;97817.67;;;;
2021/08/07 03:06:43;;;;;;;7.2;4.7;;;;;;;11.67;100;97822.86;;;;
2021/08/07 03:16:42;;;;;;;6.6;3.4;;;;;;;11.56;100;97819;;;;
2021/08/07 03:26:41;;;;;;;6.9;3.7;;;;;;;11.47;100;97826.39;;;;
2021/08/07 03:36:41;;;;;;;4.9;2.5;;;;;;;11.4;100;97824.23;;;;
2021/08/07 03:46:39;;;;;;;6.6;3.7;;;;;;;11.51;100;97828.11;;;;
2021/08/07 03:56:39;;;;;;;5.1;3.1;;;;;;;11.71;100;97826.5;;;;
2021/08/07 04:06:38;;;;;;;5.6;3.6;;;;;;;11.87;100;97837.48;;;;
2021/08/07 04:16:38;;;;;;;7.4;3.7;;;;;;;11.97;100;97845.95;;;;
2021/08/07 04:26:36;;;;;;;6.5;3.9;;;;;;;12.24;100;97846.43;;;;
2021/08/07 04:36:35;;;;;;;5.9;3.4;;;;;;;12.58;100;97854.9;;;;
2021/08/07 04:46:35;;;;;;;4.9;3.5;;;;;;;13.14;100;97865.13;;;;
2021/08/07 04:56:34;;;;;;;5.9;3.2;;;;;;;13.73;100;97879.61;;;;
2021/08/07 05:06:33;;;;;;;7.1;3.4;;;;;;;14.21;100;97880.49;;;;
2021/08/07 05:16:33;;;;;;;3.8;2.1;;;;;;;14.75;100;97886.91;;;;
2021/08/07 05:26:32;;;;;;;5.4;2.5;;;;;;;15.08;100;97894.67;;;;
2021/08/07 05:36:32;;;;;;;6.2;3.3;;;;;;;15.64;100;97911.44;;;;
2021/08/07 05:46:31;;;;;;;4;2;;;;;;;16.22;100;97905.96;;;;
2021/08/07 05:56:31;;;;;;;3.1;1.6;;;;;;;16.8;100;97909.35;;;;
2021/08/07 06:06:31;;;;;;;5.9;2.4;;;;;;;17.3;100;97902.7;;;;
2021/08/07 06:16:31;;;;;;;4.9;2.4;;;;;;;17.7;100;97907.56;;;;
2021/08/07 06:26:31;;;;;;;5.6;2.7;;;;;;;18.29;100;97912.14;;;;
2021/08/07 06:36:31;;;;;;;4.1;2;;;;;;;18.73;100;97920.38;;;;
2021/08/07 06:46:31;;;;;;;4.1;2.3;;;;;;;19.21;100;97912.94;;;;
2021/08/07 06:56:31;;;;;;;3.3;1.7;;;;;;;19.52;100;97923.31;;;;
2021/08/07 07:06:31;;;;;;;5;1.9;;;;;;;19.99;100;97936.05;;;;
2021/08/07 07:16:31;;;;;;;3.9;2.2;;;;;;;20.06;100;97945.05;;;;
2021/08/07 07:26:32;;;;;;;2.7;1.4;;;;;;;20.4;100;97947.54;;;;
2021/08/07 07:36:32;;;;;;;4;2.6;;;;;;;20.84;100;97950.73;;;;
2021/08/07 07:46:32;;;;;;;3.9;2.5;;;;;;;20.64;100;97959.71;;;;
2021/08/07 07:56:33;;;;;;;4.6;2.2;;;;;;;20.9;100;97953.86;;;;
2021/08/07 08:06:33;;;;;;;5.6;3.3;;;;;;;20.93;100;97964.82;;;;
2021/08/07 08:16:33;;;;;;;4.1;2;;;;;;;21.27;100;97978.97;;;;
2021/08/07 08:26:34;;;;;;;3.1;1.7;;;;;;;21.45;100;97973.47;;;;
2021/08/07 08:36:34;;;;;;;3.1;1.8;;;;;;;21.52;100;97982.45;;;;
2021/08/07 08:46:36;;;;;;;3.8;1.9;;;;;;;21.98;100;97982.38;;;;
2021/08/07 08:56:36;;;;;;;3.6;1.9;;;;;;;22.46;100;97979.8;;;;
2021/08/07 09:06:36;;;;;;;7.3;2.2;;;;;;;22.56;100;97975.45;;;;
2021/08/07 09:16:36;;;;;;;4;1.4;;;;;;;22.9;100;97978.41;;;;
2021/08/07 09:26:42;;;;;;;2.5;1.1;;;;;;;23.32;100;97985.53;;;;
2021/08/07 09:36:38;;;;;;;3.4;1.9;;;;;;;23.3;100;97988.68;;;;
2021/08/07 09:46:38;;;;;;;2.9;1.1;;;;;;;22.94;100;97984.66;;;;
2021/08/07 09:56:39;;;;;;;2.6;1;;;;;;;23.17;100;97984.87;;;;
2021/08/07 10:06:40;;;;;;;2.5;1.2;;;;;;;23;100;97978.33;;;;
2021/08/07 10:16:40;;;;;;;1.6;0.8;;;;;;;23.32;99.92188;97983.58;;;;
2021/08/07 10:26:41;;;;;;;2.3;0.9;;;;;;;23.84;98.84668;97997.25;;;;
2021/08/07 10:36:41;;;;;;;4.2;1.4;;;;;;;23.91;91.86719;97992.45;;;;
2021/08/07 10:46:42;;;;;;;3.5;1.7;;;;;;;24.22;90.01465;98000.78;;;;
2021/08/07 10:56:43;;;;;;;2.5;1.2;;;;;;;24.73;92.78418;97999.7;;;;
2021/08/07 11:06:44;;;;;;;2.8;1.4;;;;;;;24.84;97.4209;97992.89;;;;
2021/08/07 11:16:45;;;;;;;3.6;1.2;;;;;;;25.68;92.12988;97986.42;;;;
2021/08/07 11:26:46;;;;;;;1.8;0.8;;;;;;;25.66;78.35938;97980.53;;;;
2021/08/07 11:36:47;;;;;;;3.6;1.4;;;;;;;25.33;81.85938;97960.2;;;;
2021/08/07 11:46:48;;;;;;;3;1.1;;;;;;;25.32;79.4082;97975.19;;;;
2021/08/07 11:56:49;;;;;;;2.3;0.9;;;;;;;25.65;75.89551;97971.46;;;;
2021/08/07 12:06:50;;;;;;;3.2;1.6;;;;;;;25.34;80.76563;97973.56;;;;
2021/08/07 12:16:50;;;;;;;1.6;0.6;;;;;;;25.26;90.89453;97957.56;;;;
2021/08/07 12:26:51;;;;;;;2.5;1;;;;;;;25.41;88.04395;97961.62;;;;
2021/08/07 12:36:52;;;;;;;3.3;1.4;;;;;;;25.5;73.7334;97959.92;;;;
2021/08/07 12:46:54;;;;;;;2.6;1.7;;;;;;;25.72;73.89844;97943.73;;;;
2021/08/07 12:56:54;;;;;;;2.8;1.2;;;;;;;26.1;71.15039;97935.12;;;;
2021/08/07 13:07:04;;;;;;;3.4;1.4;;;;;;;26.01;72.58887;97930.94;;;;
2021/08/07 13:16:56;;;;;;;1.9;1.1;;;;;;;26.16;68.68848;97928.66;;;;
2021/08/07 13:26:57;;;;;;;3.8;1.2;;;;;;;26.16;70.30371;97933.41;;;;
2021/08/07 13:36:58;;;;;;;3;1;;;;;;;26.3;70.78418;97933.92;;;;
2021/08/07 13:46:59;;;;;;;3.4;1.2;;;;;;;26.67;79.40137;97924.39;;;;
2021/08/07 13:57:01;;;;;;;3.3;1.6;;;;;;;26.8;64.78223;97914.2;;;;
2021/08/07 14:07:02;;;;;;;2.2;1.1;;;;;;;26.93;73.22754;97903.28;;;;
2021/08/07 14:17:03;;;;;;;3.3;1.7;;;;;;;27.4;68.85254;97889.8;;;;
2021/08/07 14:27:04;;;;;;;2.9;1;;;;;;;27.66;81.01465;97882.42;;;;
2021/08/07 14:37:05;;;;;;;2.1;1.1;;;;;;;28;73.00098;97880.63;;;;
2021/08/07 14:47:06;;;;;;;2.5;1;;;;;;;28.37;67.69434;97876.36;;;;
2021/08/07 14:57:07;;;;;;;2.5;1.2;;;;;;;28.58;70.55176;97861.06;;;;
2021/08/07 15:07:09;;;;;;;2.7;1;;;;;;;28.5;75.49121;97854.17;;;;
2021/08/07 15:17:10;;;;;;;2.8;1.3;;;;;;;28.9;68.24414;97869.16;;;;
2021/08/07 15:27:11;;;;;;;2.9;1.7;;;;;;;32.21;56.00781;97873.14;;;;
2021/08/07 15:37:13;;;;;;;3.3;1.1;;;;;;;33.49;55.61426;97864.88;;;;
2021/08/07 15:47:15;;;;;;;3.2;1.5;;;;;;;34.5;44.75586;97871.03;;;;
2021/08/07 15:57:17;;;;;;;3.6;1.3;;;;;;;34.92;49.48535;97869.88;;;;
2021/08/07 16:07:20;;;;;;;2.5;1.1;;;;;;;35.76;41.29688;97870.44;;;;
2021/08/07 16:17:22;;;;;;;4.1;1.4;;;;;;;35.67;43.21777;97850.98;;;;
2021/08/07 16:27:25;;;;;;;2.6;1.3;;;;;;;33.04;50.52832;97838.05;;;;
2021/08/07 16:37:27;;;;;;;3.6;2;;;;;;;30.42;57.83008;97818.42;;;;
2021/08/07 16:47:29;;;;;;;3.8;1.8;;;;;;;28.98;59.2334;97830.85;;;;
2021/08/07 16:57:30;;;;;;;5.3;1.6;;;;;;;27.72;74.3418;97820.52;;;;
2021/08/07 17:07:32;;;;;;;3.4;1.4;;;;;;;27.27;71.66309;97822.56;;;;
2021/08/07 17:17:33;;;;;;;3.6;1.6;;;;;;;26.47;87.7002;97821.42;;;;
2021/08/07 17:27:34;;;;;;;5;2;;;;;;;27.69;84.49805;97829.71;;;;
2021/08/07 17:37:35;;;;;;;7.3;4.8;;;;;;;26.69;85.88867;97836.27;;;;
2021/08/07 17:47:36;;;;;;;5.6;3.3;;;;;;;25.21;94.04395;97825.64;;;;
2021/08/07 17:57:37;;;;;;;20.4;11.7;;;;;;;24.27;96.74316;97835.06;;;;
2021/08/07 18:07:37;;;;;;;8.2;4.2;;;;;;;23.44;99.92676;97840.06;;;;
2021/08/07 18:17:38;;;;;;;8;4.8;;;;;;;22.93;100;97843.72;;;;
2021/08/07 18:27:38;;;;;;;14.5;13;;;;;;;22.33;100;97849.66;;;;
2021/08/07 18:37:39;;;;;;;18.1;11.6;;;;;;;21.88;100;97853.42;;;;
2021/08/07 18:47:39;;;;;;;133.7;109.5;;;;;;;21.38;100;97855.59;;;;
2021/08/07 18:57:39;;;;;;;54.8;48.7;;;;;;;21.1;100;97861.92;;;;
2021/08/07 19:07:39;;;;;;;9.8;8.6;;;;;;;20.78;100;97853.7;;;;
2021/08/07 19:17:39;;;;;;;8.6;6.4;;;;;;;20.43;100;97835.32;;;;
2021/08/07 19:27:40;;;;;;;8.9;6.5;;;;;;;20.05;100;97836.02;;;;
2021/08/07 19:37:40;;;;;;;11.9;9.2;;;;;;;19.66;100;97830.44;;;;
2021/08/07 19:47:40;;;;;;;11.7;10.5;;;;;;;19.32;100;97829.09;;;;
2021/08/07 19:57:39;;;;;;;8.8;5.3;;;;;;;18.99;100;97832.8;;;;
2021/08/07 20:07:39;;;;;;;45.7;40.9;;;;;;;18.7;100;97831.84;;;;
2021/08/07 20:17:39;;;;;;;32.3;23.1;;;;;;;18.6;100;97838;;;;
2021/08/07 20:27:39;;;;;;;8.5;5.4;;;;;;;18.56;100;97839.91;;;;
2021/08/07 20:37:39;;;;;;;8.1;5.2;;;;;;;18.6;100;97822.39;;;;
2021/08/07 20:47:39;;;;;;;15.9;10.4;;;;;;;18.58;100;97813.02;;;;
2021/08/07 20:57:39;;;;;;;5.1;2.5;;;;;;;18.63;100;97822.81;;;;
2021/08/07 21:07:38;;;;;;;4.8;2.5;;;;;;;18.43;100;97835.88;;;;
2021/08/07 21:17:38;;;;;;;5.2;3.2;;;;;;;18.23;100;97832.57;;;;
2021/08/07 21:27:41;;;;;;;5.8;4.9;;;;;;;18.44;100;97829.24;;;;
2021/08/07 21:37:38;;;;;;;7;4.3;;;;;;;18.54;100;97839.49;;;;
2021/08/07 21:47:37;;;;;;;5.9;3.5;;;;;;;18.51;100;97849.22;;;;
2021/08/07 21:57:37;;;;;;;5.7;3.8;;;;;;;18.49;100;97842.55;;;;
2021/08/07 22:07:37;;;;;;;16.2;10.5;;;;;;;18.28;100;97850.55;;;;
2021/08/07 22:17:39;;;;;;;10.6;8.1;;;;;;;17.97;100;97855.31;;;;
2021/08/07 22:27:37;;;;;;;11.9;6.6;;;;;;;17.72;100;97856.19;;;;
2021/08/07 22:37:37;;;;;;;13.2;5.8;;;;;;;17.48;100;97830.18;;;;
2021/08/07 22:47:36;;;;;;;6.6;3;;;;;;;17.77;100;97847.69;;;;
2021/08/07 22:57:36;;;;;;;9.7;8.4;;;;;;;17.58;100;97845.9;;;;
2021/08/07 23:07:36;;;;;;;12.8;9.8;;;;;;;17.44;100;97840.24;;;;
2021/08/07 23:17:35;;;;;;;12;8.9;;;;;;;17.25;100;97819.38;;;;
2021/08/07 23:27:35;;;;;;;10.3;3.4;;;;;;;17.86;100;97782.74;;;;
2021/08/07 23:37:35;;;;;;;5.5;3.2;;;;;;;18.55;100;97775.57;;;;
2021/08/07 23:47:35;;;;;;;4.8;3.3;;;;;;;19.06;100;97781.73;;;;
2021/08/07 23:57:34;;;;;;;8.1;3.3;;;;;;;19.24;100;97790.02;;;;
